Time;durP1;ratioP1;P1;durP2;ratioP2;P2;SDS_P1;SDS_P2;PMS_P1;PMS_P2;Temp;Humidity;BMP_temperature;BMP_pressure;BME280_temperature;BME280_humidity;BME280_pressure;Samples;Min_cycle;Max_cycle;Signal;HPM_P1;HPM_P2
2022/04/04 00:00:19;;;;;;;5.88;5.28;;;8.50;99.90;;;;;;5035836;28;20029;-74
2022/04/04 00:02:45;;;;;;;7.03;5.43;;;8.60;99.90;;;;;;5053903;28;20025;-73
2022/04/04 00:05:11;;;;;;;8.20;5.85;;;8.60;99.90;;;;;;5068533;28;20468;-73
2022/04/04 00:07:38;;;;;;;5.97;5.13;;;8.60;99.90;;;;;;5054374;28;20015;-73
2022/04/04 00:10:05;;;;;;;6.85;5.40;;;8.50;99.90;;;;;;5071814;28;20032;-73
2022/04/04 00:12:30;;;;;;;7.45;5.53;;;8.50;99.90;;;;;;5073163;28;20028;-73
2022/04/04 00:14:56;;;;;;;8.93;5.20;;;8.50;99.90;;;;;;5072676;28;20029;-74
2022/04/04 00:17:22;;;;;;;5.30;4.80;;;8.50;99.90;;;;;;5072877;28;20030;-73
2022/04/04 00:19:48;;;;;;;8.52;5.57;;;8.60;99.90;;;;;;5072826;28;20032;-73
2022/04/04 00:22:14;;;;;;;7.85;5.05;;;8.60;99.90;;;;;;5055131;28;20028;-74
2022/04/04 00:24:40;;;;;;;6.20;5.15;;;8.60;99.90;;;;;;5035372;28;20024;-73
2022/04/04 00:27:06;;;;;;;8.30;5.47;;;8.70;99.90;;;;;;5053353;28;20031;-73
2022/04/04 00:29:32;;;;;;;5.05;4.57;;;8.60;99.90;;;;;;5035267;28;20049;-73
2022/04/04 00:31:58;;;;;;;5.47;4.97;;;8.60;99.90;;;;;;5053015;28;20156;-73
2022/04/04 00:34:24;;;;;;;8.10;5.38;;;8.60;99.90;;;;;;5053268;28;20115;-73
2022/04/04 00:36:49;;;;;;;8.20;5.28;;;8.60;99.90;;;;;;5053051;28;20025;-73
2022/04/04 00:39:16;;;;;;;6.47;4.80;;;8.60;99.90;;;;;;5052923;28;20112;-73
2022/04/04 00:41:45;;;;;;;10.68;5.15;;;8.60;99.90;;;;;;5034848;28;20033;-73
2022/04/04 00:44:18;;;;;;;8.50;4.88;;;8.60;99.90;;;;;;5035080;28;20033;-73
2022/04/04 00:46:44;;;;;;;6.43;5.28;;;8.60;99.90;;;;;;5034671;28;20392;-73
2022/04/04 00:49:11;;;;;;;5.07;4.53;;;8.50;99.90;;;;;;5034481;28;20041;-73
2022/04/04 00:51:37;;;;;;;7.50;5.35;;;8.40;99.90;;;;;;5052784;28;20087;-73
2022/04/04 00:54:04;;;;;;;5.50;4.43;;;8.40;99.90;;;;;;5052782;28;20023;-73
2022/04/04 00:56:34;;;;;;;6.20;5.00;;;8.40;99.90;;;;;;5034522;28;20540;-73
2022/04/04 00:59:00;;;;;;;6.07;4.43;;;8.40;99.90;;;;;;5052953;28;20360;-73
2022/04/04 01:01:26;;;;;;;5.88;4.55;;;8.30;99.90;;;;;;5052596;28;20437;-73
2022/04/04 01:03:52;;;;;;;4.95;4.50;;;8.30;99.90;;;;;;5052684;28;20642;-73
2022/04/04 01:06:18;;;;;;;5.35;4.85;;;8.30;99.90;;;;;;5068051;28;20109;-73
2022/04/04 01:08:44;;;;;;;6.05;5.13;;;8.30;99.90;;;;;;5052472;28;20039;-73
2022/04/04 01:11:11;;;;;;;4.88;3.97;;;8.30;99.90;;;;;;5052811;28;20021;-73
2022/04/04 01:13:37;;;;;;;6.05;4.40;;;8.30;99.90;;;;;;5034776;28;20112;-73
2022/04/04 01:16:04;;;;;;;4.60;4.20;;;8.20;99.90;;;;;;5052613;28;20104;-73
2022/04/04 01:18:29;;;;;;;4.53;4.13;;;8.20;99.90;;;;;;5052783;28;20091;-73
2022/04/04 01:20:55;;;;;;;6.43;5.07;;;8.10;99.90;;;;;;5063450;28;20032;-73
2022/04/04 01:23:25;;;;;;;5.82;4.30;;;8.10;99.90;;;;;;5052592;28;20495;-73
2022/04/04 01:25:51;;;;;;;5.20;4.20;;;8.20;99.90;;;;;;5052560;28;20043;-73
2022/04/04 01:28:17;;;;;;;3.92;3.63;;;8.20;99.90;;;;;;5052408;28;20104;-73
2022/04/04 01:30:47;;;;;;;4.07;3.75;;;8.20;99.90;;;;;;5052487;28;20163;-73
2022/04/04 01:33:13;;;;;;;9.23;4.63;;;8.20;99.90;;;;;;5051756;28;20028;-73
2022/04/04 01:35:39;;;;;;;5.57;3.95;;;8.20;99.90;;;;;;5052368;28;20392;-73
2022/04/04 01:38:05;;;;;;;4.47;3.83;;;8.20;99.90;;;;;;5052298;28;20029;-73
2022/04/04 01:40:30;;;;;;;4.68;3.63;;;8.20;99.90;;;;;;5034385;28;20025;-73
2022/04/04 01:42:56;;;;;;;4.40;3.65;;;8.20;99.90;;;;;;5052294;28;20033;-73
2022/04/04 01:48:08;;;;;;;5.50;4.40;;;8.30;99.90;;;;;;5052181;28;20055;-73
2022/04/04 01:50:34;;;;;;;4.32;3.75;;;8.30;99.90;;;;;;5052068;28;20627;-73
2022/04/04 01:55:45;;;;;;;4.10;3.72;;;8.30;99.90;;;;;;5052040;28;20442;-73
2022/04/04 01:58:11;;;;;;;4.80;3.65;;;8.30;99.90;;;;;;5051926;28;20112;-73
2022/04/04 02:00:38;;;;;;;7.90;4.55;;;8.30;99.90;;;;;;5051048;28;20028;-73
2022/04/04 02:03:04;;;;;;;6.68;5.05;;;8.30;99.90;;;;;;5050894;28;20499;-73
2022/04/04 02:05:30;;;;;;;10.30;5.35;;;8.30;99.90;;;;;;5034116;28;20036;-73
2022/04/04 02:07:55;;;;;;;7.22;5.32;;;8.20;99.90;;;;;;5033971;28;20025;-73
2022/04/04 02:10:21;;;;;;;8.57;5.97;;;8.20;99.90;;;;;;5053684;28;20028;-74
2022/04/04 02:12:47;;;;;;;8.40;6.03;;;8.20;99.90;;;;;;5052011;28;20106;-73
2022/04/04 02:15:13;;;;;;;6.20;5.28;;;8.10;99.90;;;;;;5052005;28;20037;-73
2022/04/04 02:17:39;;;;;;;9.38;5.75;;;8.20;99.90;;;;;;5051834;28;20031;-73
2022/04/04 02:20:08;;;;;;;8.80;5.75;;;8.10;99.90;;;;;;5051922;28;20029;-73
2022/04/04 02:22:34;;;;;;;9.45;5.90;;;8.10;99.90;;;;;;5031928;28;20109;-73
2022/04/04 02:25:00;;;;;;;8.73;5.43;;;8.10;99.90;;;;;;5030933;28;20064;-73
2022/04/04 02:27:27;;;;;;;6.35;5.70;;;8.20;99.90;;;;;;5030768;28;20548;-73
2022/04/04 02:29:52;;;;;;;6.25;5.30;;;8.10;99.90;;;;;;5031819;28;20029;-73
2022/04/04 02:32:19;;;;;;;5.88;5.22;;;8.10;99.90;;;;;;5015470;28;20571;-73
2022/04/04 02:34:48;;;;;;;5.93;4.93;;;8.10;99.90;;;;;;5035460;28;20029;-74
2022/04/04 02:37:14;;;;;;;8.02;4.97;;;8.10;99.90;;;;;;5017367;28;20040;-73
2022/04/04 02:39:40;;;;;;;4.65;4.25;;;8.10;99.90;;;;;;5035462;28;20485;-73
2022/04/04 02:42:07;;;;;;;5.85;3.88;;;8.20;99.90;;;;;;5035370;28;20033;-73
2022/04/04 02:44:34;;;;;;;6.60;5.38;;;8.10;99.90;;;;;;5035315;28;20022;-73
2022/04/04 02:46:59;;;;;;;4.40;4.00;;;8.00;99.90;;;;;;5035062;28;20026;-74
2022/04/04 02:49:25;;;;;;;4.82;3.70;;;8.00;99.90;;;;;;5017325;28;20363;-73
2022/04/04 02:51:52;;;;;;;4.70;3.30;;;8.00;99.90;;;;;;5049521;28;20028;-73
2022/04/04 02:54:18;;;;;;;5.72;3.97;;;8.00;99.90;;;;;;5055102;28;20060;-73
2022/04/04 02:56:43;;;;;;;6.05;4.07;;;8.00;99.90;;;;;;5055010;28;20059;-74
2022/04/04 02:59:09;;;;;;;4.50;4.10;;;8.00;99.90;;;;;;5070221;28;20025;-73
2022/04/04 03:01:35;;;;;;;4.25;3.85;;;8.00;99.90;;;;;;5054888;28;20028;-73
2022/04/04 03:04:02;;;;;;;4.03;3.30;;;8.00;99.90;;;;;;5070216;28;20415;-73
2022/04/04 03:06:28;;;;;;;3.75;3.13;;;8.00;99.90;;;;;;5054498;28;20041;-74
2022/04/04 03:08:55;;;;;;;3.85;3.33;;;8.00;99.90;;;;;;5055008;28;20600;-73
2022/04/04 03:11:21;;;;;;;3.25;3.03;;;8.00;99.90;;;;;;5054807;28;20475;-73
2022/04/04 03:13:47;;;;;;;3.65;3.35;;;8.00;99.90;;;;;;5054532;28;20025;-73
2022/04/04 03:16:13;;;;;;;5.78;3.50;;;8.00;99.90;;;;;;5054610;28;20057;-73
2022/04/04 03:18:39;;;;;;;3.15;2.85;;;8.00;99.90;;;;;;5036762;28;20660;-74
2022/04/04 03:21:06;;;;;;;3.30;3.00;;;8.00;99.90;;;;;;5065017;28;20029;-73
2022/04/04 03:23:33;;;;;;;3.92;3.47;;;7.90;99.90;;;;;;5054374;28;20024;-73
2022/04/04 03:25:59;;;;;;;3.63;3.35;;;7.90;99.90;;;;;;5036455;28;20028;-73
2022/04/04 03:28:25;;;;;;;3.10;2.80;;;7.80;99.90;;;;;;5053674;28;20392;-73
2022/04/04 03:30:52;;;;;;;3.00;2.75;;;7.80;99.90;;;;;;5054522;28;20104;-73
2022/04/04 03:33:17;;;;;;;3.28;2.70;;;7.80;99.90;;;;;;5036357;28;20068;-73
2022/04/04 03:35:43;;;;;;;4.30;3.40;;;7.80;99.90;;;;;;5036260;28;20057;-73
2022/04/04 03:38:13;;;;;;;3.13;2.88;;;7.80;99.90;;;;;;5036394;28;20056;-73
2022/04/04 03:40:40;;;;;;;3.70;3.15;;;7.70;99.90;;;;;;5054126;28;20036;-73
2022/04/04 03:43:06;;;;;;;3.92;3.05;;;7.60;99.90;;;;;;5053408;28;20100;-74
2022/04/04 03:45:32;;;;;;;3.72;2.83;;;7.60;99.90;;;;;;5053612;28;20049;-73
2022/04/04 03:47:58;;;;;;;3.13;2.92;;;7.60;99.90;;;;;;5053525;28;20353;-73
2022/04/04 03:50:26;;;;;;;3.15;2.75;;;7.60;99.90;;;;;;5035882;28;20115;-74
2022/04/04 03:52:53;;;;;;;3.63;2.65;;;7.70;99.90;;;;;;5036001;28;20025;-73
2022/04/04 03:55:25;;;;;;;5.07;3.13;;;7.60;99.90;;;;;;5053819;28;20453;-73
2022/04/04 03:57:51;;;;;;;2.85;2.65;;;7.60;99.90;;;;;;5053829;28;20059;-73
2022/04/04 04:00:18;;;;;;;3.40;3.15;;;7.50;99.90;;;;;;5053789;28;20032;-74
2022/04/04 04:02:44;;;;;;;3.35;2.75;;;7.50;99.90;;;;;;5053607;28;20034;-73
2022/04/04 04:05:10;;;;;;;3.70;3.40;;;7.50;99.90;;;;;;5055103;28;20465;-73
2022/04/04 04:07:37;;;;;;;3.33;2.47;;;7.50;99.90;;;;;;5053598;28;20372;-73
2022/04/04 04:10:03;;;;;;;6.97;3.40;;;7.50;99.90;;;;;;5053763;28;20032;-73
2022/04/04 04:12:29;;;;;;;3.08;2.85;;;7.40;99.90;;;;;;5035542;28;20857;-74
2022/04/04 04:14:55;;;;;;;4.25;3.15;;;7.40;99.90;;;;;;5035532;28;20131;-73
2022/04/04 04:17:22;;;;;;;2.95;2.75;;;7.40;99.90;;;;;;5053472;28;20094;-73
2022/04/04 04:22:33;;;;;;;3.45;3.15;;;7.30;99.90;;;;;;5032154;28;20640;-73
2022/04/04 04:25:00;;;;;;;3.78;2.60;;;7.30;99.90;;;;;;5031878;28;20052;-74
2022/04/04 04:27:26;;;;;;;3.42;3.13;;;7.30;99.90;;;;;;5030789;28;20363;-73
2022/04/04 04:29:52;;;;;;;3.45;3.15;;;7.30;99.90;;;;;;5032087;28;20358;-73
2022/04/04 04:32:20;;;;;;;5.32;2.78;;;7.30;99.90;;;;;;5032219;28;20037;-73
2022/04/04 04:34:49;;;;;;;2.47;2.28;;;7.30;99.90;;;;;;5032159;28;20025;-73
2022/04/04 04:37:16;;;;;;;3.92;2.90;;;7.20;99.90;;;;;;5041176;28;20025;-73
2022/04/04 04:39:41;;;;;;;5.43;2.88;;;7.20;99.90;;;;;;5052955;28;20025;-73
2022/04/04 04:42:07;;;;;;;4.78;3.08;;;7.20;99.90;;;;;;5035150;28;20037;-73
2022/04/04 04:44:33;;;;;;;2.83;2.53;;;7.10;99.90;;;;;;5052181;28;20083;-73
2022/04/04 04:47:00;;;;;;;5.28;3.08;;;7.20;99.90;;;;;;5052030;28;20076;-73
2022/04/04 04:49:26;;;;;;;3.25;2.90;;;7.10;99.90;;;;;;5033996;28;20178;-73
2022/04/04 04:51:52;;;;;;;4.53;2.88;;;7.20;99.90;;;;;;5033997;28;20592;-73
2022/04/04 04:54:18;;;;;;;3.15;2.95;;;7.10;99.90;;;;;;5051882;28;20017;-73
2022/04/04 04:56:45;;;;;;;6.20;3.40;;;7.10;99.90;;;;;;5051725;28;20033;-73
2022/04/04 04:59:11;;;;;;;3.35;3.08;;;7.00;99.90;;;;;;5034112;28;20106;-73
2022/04/04 05:01:37;;;;;;;5.75;3.78;;;7.00;99.90;;;;;;5034781;28;20472;-74
2022/04/04 05:04:03;;;;;;;3.47;3.17;;;7.00;99.80;;;;;;5052792;28;20087;-73
2022/04/04 05:06:28;;;;;;;4.28;3.47;;;7.00;99.70;;;;;;5052565;28;20013;-73
2022/04/04 05:08:59;;;;;;;4.05;3.28;;;7.00;99.80;;;;;;5034329;28;20052;-73
2022/04/04 05:11:26;;;;;;;3.63;3.05;;;7.00;99.50;;;;;;5034566;28;20029;-73
2022/04/04 05:13:51;;;;;;;3.75;3.17;;;7.00;99.80;;;;;;5052754;28;20075;-73
2022/04/04 05:16:17;;;;;;;4.28;3.17;;;7.00;99.20;;;;;;5052116;28;20029;-73
2022/04/04 05:18:44;;;;;;;3.42;3.13;;;7.00;99.20;;;;;;5034114;28;20033;-73
2022/04/04 05:21:11;;;;;;;3.47;3.17;;;7.00;98.90;;;;;;5033998;28;20025;-73
2022/04/04 05:23:38;;;;;;;4.72;3.25;;;7.00;98.90;;;;;;5051124;28;20024;-73
2022/04/04 05:26:05;;;;;;;3.58;3.28;;;7.00;98.90;;;;;;5052427;28;20071;-79
2022/04/04 05:28:31;;;;;;;6.43;3.08;;;7.00;98.90;;;;;;5034717;28;20025;-79
2022/04/04 05:30:58;;;;;;;5.32;2.92;;;7.00;98.90;;;;;;5052564;28;20028;-79
2022/04/04 05:33:24;;;;;;;3.75;3.45;;;7.10;98.50;;;;;;5034721;28;20072;-78
2022/04/04 05:35:50;;;;;;;5.22;3.60;;;7.10;98.40;;;;;;5052361;28;20032;-79
2022/04/04 05:38:16;;;;;;;3.70;3.05;;;7.10;98.30;;;;;;5052491;28;20029;-80
2022/04/04 05:40:42;;;;;;;4.53;3.65;;;7.10;98.20;;;;;;5052467;28;20079;-79
2022/04/04 05:43:08;;;;;;;5.15;3.33;;;7.10;98.00;;;;;;5034527;28;20036;-79
2022/04/04 05:45:39;;;;;;;3.83;2.97;;;7.10;97.90;;;;;;5052408;28;20029;-79
2022/04/04 05:48:06;;;;;;;5.15;3.42;;;7.10;97.90;;;;;;5052361;28;20404;-79
2022/04/04 05:50:33;;;;;;;5.43;3.50;;;7.20;97.90;;;;;;5052409;28;20032;-79
2022/04/04 05:52:58;;;;;;;5.20;3.30;;;7.20;97.60;;;;;;5052403;28;20028;-79
2022/04/04 05:55:24;;;;;;;3.35;3.15;;;7.20;97.90;;;;;;5034461;28;20029;-79
2022/04/04 05:57:50;;;;;;;3.17;2.92;;;7.30;97.60;;;;;;5051976;28;20032;-79
2022/04/04 06:00:17;;;;;;;4.07;3.35;;;7.30;97.50;;;;;;5052389;28;20688;-79
2022/04/04 06:02:45;;;;;;;7.60;3.40;;;7.40;97.70;;;;;;5034350;28;20508;-79
2022/04/04 06:05:11;;;;;;;4.78;3.30;;;7.40;97.40;;;;;;5052314;28;20028;-79
2022/04/04 06:07:38;;;;;;;4.03;2.88;;;7.50;97.50;;;;;;5054078;28;20104;-80
2022/04/04 06:10:06;;;;;;;4.68;3.10;;;7.60;97.60;;;;;;5037886;28;20480;-79
2022/04/04 06:12:34;;;;;;;3.47;3.17;;;7.70;97.40;;;;;;5038116;28;20048;-79
2022/04/04 06:15:00;;;;;;;7.85;3.60;;;7.70;97.20;;;;;;5056195;28;20025;-79
2022/04/04 06:17:26;;;;;;;3.78;3.03;;;7.70;97.10;;;;;;5055713;28;20027;-80
2022/04/04 06:19:51;;;;;;;3.53;3.25;;;7.80;96.80;;;;;;5055987;28;20060;-80
2022/04/04 06:22:17;;;;;;;2.97;2.78;;;7.80;96.80;;;;;;5055727;28;20040;-81
2022/04/04 06:24:43;;;;;;;3.95;3.13;;;7.90;96.60;;;;;;5055712;28;20029;-80
2022/04/04 06:27:09;;;;;;;3.58;3.00;;;7.90;96.70;;;;;;5071007;28;20026;-80
2022/04/04 06:29:35;;;;;;;3.70;3.33;;;8.00;97.00;;;;;;5071006;28;20400;-80
2022/04/04 06:32:01;;;;;;;3.47;3.20;;;8.00;96.90;;;;;;5055521;28;20066;-79
2022/04/04 06:34:27;;;;;;;10.20;3.10;;;8.00;96.30;;;;;;5055568;28;20451;-80
2022/04/04 06:36:53;;;;;;;4.78;3.70;;;8.10;96.70;;;;;;5055477;28;20025;-79
2022/04/04 06:39:19;;;;;;;4.38;3.13;;;8.20;96.80;;;;;;5055635;28;20059;-79
2022/04/04 06:41:45;;;;;;;7.75;3.60;;;8.20;96.70;;;;;;5055610;28;20036;-80
2022/04/04 06:44:11;;;;;;;5.82;3.22;;;8.30;96.80;;;;;;5055647;28;20021;-80
2022/04/04 06:46:38;;;;;;;3.85;3.45;;;8.40;96.90;;;;;;5055363;28;20023;-79
2022/04/04 06:49:07;;;;;;;4.13;3.83;;;8.40;96.50;;;;;;5055370;28;20100;-80
2022/04/04 06:51:34;;;;;;;4.13;3.17;;;8.50;96.80;;;;;;5055354;28;20421;-80
2022/04/04 06:54:03;;;;;;;3.53;3.25;;;8.60;96.90;;;;;;5055300;28;20439;-80
2022/04/04 06:56:29;;;;;;;6.72;3.70;;;8.70;96.50;;;;;;5055385;28;20539;-80
2022/04/04 06:58:55;;;;;;;3.40;3.10;;;8.80;96.00;;;;;;5055264;28;20109;-80
2022/04/04 07:01:21;;;;;;;5.55;3.83;;;8.80;95.40;;;;;;5055116;28;20538;-79
2022/04/04 07:03:46;;;;;;;5.90;3.28;;;8.90;95.50;;;;;;5053885;28;20025;-80
2022/04/04 07:06:12;;;;;;;3.35;3.00;;;9.00;95.30;;;;;;5055030;28;20021;-80
2022/04/04 07:08:38;;;;;;;3.28;2.80;;;9.10;95.10;;;;;;5055126;28;20496;-80
2022/04/04 07:11:05;;;;;;;3.20;3.00;;;9.20;95.40;;;;;;5054935;28;20021;-79
2022/04/04 07:13:32;;;;;;;2.97;2.75;;;9.20;95.70;;;;;;5054876;28;20480;-80
2022/04/04 07:15:58;;;;;;;3.97;2.72;;;9.30;96.20;;;;;;5054637;28;20028;-80
2022/04/04 07:18:24;;;;;;;4.15;3.47;;;9.30;95.80;;;;;;5036869;28;20017;-80
2022/04/04 07:20:50;;;;;;;2.85;2.50;;;9.40;96.10;;;;;;5036954;28;20028;-80
2022/04/04 07:23:15;;;;;;;4.35;2.83;;;9.40;96.40;;;;;;5054772;28;20021;-80
2022/04/04 07:25:41;;;;;;;3.00;2.80;;;9.40;96.20;;;;;;5054825;28;20025;-80
2022/04/04 07:28:08;;;;;;;2.53;2.42;;;9.50;96.80;;;;;;5054474;28;20104;-80
2022/04/04 07:30:34;;;;;;;7.88;2.60;;;9.50;96.60;;;;;;5054711;28;20029;-80
2022/04/04 07:33:01;;;;;;;3.95;2.80;;;9.60;96.60;;;;;;5036655;28;20053;-80
2022/04/04 07:35:27;;;;;;;4.75;2.97;;;9.60;96.50;;;;;;5054438;28;20025;-80
2022/04/04 07:37:53;;;;;;;3.97;2.97;;;9.60;95.80;;;;;;5054496;28;20035;-80
2022/04/04 07:40:21;;;;;;;3.95;2.88;;;9.60;96.40;;;;;;5054514;28;20100;-80
2022/04/04 07:42:48;;;;;;;3.00;2.80;;;9.70;96.10;;;;;;5054339;28;20476;-80
2022/04/04 07:45:15;;;;;;;3.50;3.20;;;9.60;95.50;;;;;;5036489;28;20029;-80
2022/04/04 07:47:41;;;;;;;7.07;3.33;;;9.60;95.70;;;;;;5054119;28;20393;-79
2022/04/04 07:50:10;;;;;;;5.97;2.67;;;9.60;95.10;;;;;;5054168;28;20100;-80
2022/04/04 07:52:36;;;;;;;5.38;3.38;;;9.70;96.10;;;;;;5054192;28;20029;-79
2022/04/04 07:55:03;;;;;;;6.43;3.08;;;9.60;95.70;;;;;;5054323;28;20041;-80
2022/04/04 07:57:28;;;;;;;3.53;2.75;;;9.60;95.60;;;;;;5069487;28;20032;-80
2022/04/04 07:59:54;;;;;;;5.60;3.65;;;9.70;95.80;;;;;;5054466;28;20396;-80
2022/04/04 08:02:20;;;;;;;5.53;2.97;;;9.70;96.60;;;;;;5036156;28;20028;-80
2022/04/04 08:04:47;;;;;;;4.43;3.13;;;9.80;97.20;;;;;;5054249;28;20691;-79
2022/04/04 08:07:13;;;;;;;3.60;3.15;;;9.70;96.50;;;;;;5036098;28;20028;-80
2022/04/04 08:09:39;;;;;;;3.38;3.08;;;9.80;96.50;;;;;;5054006;28;20384;-79
2022/04/04 08:12:05;;;;;;;3.42;3.13;;;9.80;97.00;;;;;;5053915;28;20033;-80
2022/04/04 08:14:31;;;;;;;6.38;3.53;;;9.80;97.20;;;;;;5053917;28;20035;-80
2022/04/04 08:16:57;;;;;;;3.60;3.20;;;9.80;96.60;;;;;;5053540;28;20025;-80
2022/04/04 08:19:23;;;;;;;4.85;3.05;;;9.80;96.80;;;;;;5053221;28;20036;-79
2022/04/04 08:21:48;;;;;;;4.88;3.05;;;9.90;97.10;;;;;;5053341;28;20044;-80
2022/04/04 08:24:14;;;;;;;5.70;3.63;;;9.90;96.90;;;;;;5053583;28;20100;-79
2022/04/04 08:26:41;;;;;;;3.38;3.08;;;10.00;97.50;;;;;;5053584;28;20056;-80
2022/04/04 08:29:09;;;;;;;7.20;3.20;;;10.10;97.20;;;;;;5053389;28;20017;-80
2022/04/04 08:31:35;;;;;;;3.40;3.00;;;10.00;96.20;;;;;;5053155;28;20481;-80
2022/04/04 08:34:01;;;;;;;4.13;3.13;;;10.10;96.00;;;;;;5053484;28;20033;-80
2022/04/04 08:36:27;;;;;;;3.65;3.38;;;10.20;96.60;;;;;;5053157;28;20083;-79
2022/04/04 08:38:53;;;;;;;3.55;3.25;;;10.30;95.60;;;;;;5035284;28;20443;-80
2022/04/04 08:41:20;;;;;;;4.75;3.53;;;10.30;95.30;;;;;;5053271;28;20028;-79
2022/04/04 08:43:49;;;;;;;6.55;3.28;;;10.30;94.70;;;;;;5035370;28;20467;-80
2022/04/04 08:46:16;;;;;;;3.50;3.20;;;10.40;94.80;;;;;;5053268;28;20048;-80
2022/04/04 08:48:42;;;;;;;4.38;3.25;;;10.40;94.70;;;;;;5052965;28;20077;-80
2022/04/04 08:51:08;;;;;;;4.25;3.88;;;10.40;94.90;;;;;;5053096;28;20021;-80
2022/04/04 08:53:35;;;;;;;6.38;3.95;;;10.50;95.10;;;;;;5053089;28;20079;-80
2022/04/04 08:56:04;;;;;;;7.40;3.65;;;10.50;95.50;;;;;;5035337;28;20028;-80
2022/04/04 08:58:30;;;;;;;4.82;3.50;;;10.50;95.70;;;;;;5053102;28;20028;-80
2022/04/04 09:00:56;;;;;;;4.50;3.50;;;10.50;94.90;;;;;;5035275;28;20143;-79
2022/04/04 09:03:26;;;;;;;4.68;3.65;;;10.60;95.10;;;;;;5052955;28;20108;-79
2022/04/04 09:05:54;;;;;;;4.55;3.60;;;10.60;94.80;;;;;;5068374;28;20399;-80
2022/04/04 09:08:21;;;;;;;5.82;3.92;;;10.70;95.80;;;;;;5035094;28;20069;-80
2022/04/04 09:10:50;;;;;;;3.72;3.42;;;10.70;95.50;;;;;;5052793;28;20021;-80
2022/04/04 09:13:17;;;;;;;5.38;3.20;;;10.70;96.10;;;;;;5052913;28;20021;-80
2022/04/04 09:16:01;;;;;;;4.10;3.17;;;10.70;94.40;;;;;;5068315;28;20025;-80
2022/04/04 09:18:42;;;;;;;9.80;3.60;;;10.80;94.90;;;;;;5052584;28;20658;-80
2022/04/04 09:21:11;;;;;;;3.35;3.08;;;10.80;94.80;;;;;;5052738;28;20056;-80
2022/04/04 09:23:48;;;;;;;4.38;3.58;;;10.80;95.00;;;;;;5052802;28;20384;-73
2022/04/04 09:26:29;;;;;;;5.80;3.97;;;10.90;94.50;;;;;;5052210;28;20021;-73
2022/04/04 09:28:55;;;;;;;6.40;3.55;;;10.90;94.30;;;;;;5056082;28;20037;-73
2022/04/04 09:31:21;;;;;;;4.15;3.15;;;10.90;94.30;;;;;;5052070;28;20029;-73
2022/04/04 09:33:47;;;;;;;5.25;3.55;;;10.90;94.10;;;;;;5052271;28;20036;-73
2022/04/04 09:36:13;;;;;;;6.03;3.10;;;10.90;93.90;;;;;;5034437;28;20547;-73
2022/04/04 09:38:43;;;;;;;6.05;3.55;;;10.90;94.20;;;;;;5052288;28;20033;-73
2022/04/04 09:41:15;;;;;;;3.33;3.13;;;11.00;95.10;;;;;;5034444;28;20025;-73
2022/04/04 09:43:54;;;;;;;3.90;3.30;;;11.00;94.30;;;;;;5056239;28;20025;-73
2022/04/04 09:46:21;;;;;;;18.20;3.45;;;11.00;93.90;;;;;;5038279;28;20021;-73
2022/04/04 09:49:03;;;;;;;4.55;4.10;;;11.00;94.50;;;;;;5070620;28;20037;-73
2022/04/04 09:51:43;;;;;;;6.45;3.85;;;11.00;94.50;;;;;;5040898;28;20016;-73
2022/04/04 09:54:17;;;;;;;4.82;3.47;;;11.00;94.60;;;;;;5074052;28;20074;-73
2022/04/04 09:56:43;;;;;;;3.60;3.30;;;11.00;93.80;;;;;;5054829;28;20066;-73
2022/04/04 09:59:15;;;;;;;3.63;3.33;;;11.00;94.50;;;;;;5073334;28;20029;-73
2022/04/04 10:01:42;;;;;;;4.03;3.63;;;11.00;94.70;;;;;;5072846;28;20021;-73
2022/04/04 10:04:09;;;;;;;3.80;3.50;;;11.00;94.00;;;;;;5072733;28;20025;-73
2022/04/04 10:06:37;;;;;;;4.85;3.50;;;11.00;93.90;;;;;;5054583;28;20349;-74
2022/04/04 10:09:03;;;;;;;3.90;3.58;;;11.00;93.50;;;;;;5054868;28;20028;-73
2022/04/04 10:11:35;;;;;;;5.78;3.55;;;11.00;93.20;;;;;;5072096;28;20025;-73
2022/04/04 10:14:01;;;;;;;7.00;3.92;;;11.10;92.80;;;;;;5057570;28;20135;-73
2022/04/04 10:16:27;;;;;;;5.65;4.03;;;11.00;92.70;;;;;;5075532;28;20107;-80
2022/04/04 10:18:59;;;;;;;4.38;3.47;;;11.00;92.80;;;;;;5057745;28;20032;-79
2022/04/04 10:21:27;;;;;;;4.05;3.65;;;11.00;93.10;;;;;;5057615;28;20119;-80
2022/04/04 10:23:57;;;;;;;4.80;3.70;;;11.10;93.50;;;;;;5057787;28;20020;-80
2022/04/04 10:26:28;;;;;;;3.88;3.42;;;11.10;92.50;;;;;;5075667;28;20053;-80
2022/04/04 10:29:13;;;;;;;4.95;3.78;;;11.10;92.70;;;;;;5075702;28;20104;-80
2022/04/04 10:31:45;;;;;;;5.28;4.13;;;11.20;92.60;;;;;;5075651;28;20115;-80
2022/04/04 10:34:16;;;;;;;7.15;3.80;;;11.20;93.00;;;;;;5075633;28;20028;-80
2022/04/04 10:36:54;;;;;;;3.95;3.55;;;11.20;93.00;;;;;;5075110;28;20082;-80
2022/04/04 10:39:40;;;;;;;4.57;4.18;;;11.30;93.20;;;;;;5056890;28;20055;-80
2022/04/04 10:42:26;;;;;;;7.47;5.30;;;11.30;93.20;;;;;;5056616;28;20055;-79
2022/04/04 10:45:10;;;;;;;6.65;4.82;;;11.20;92.80;;;;;;5074858;28;20028;-79
2022/04/04 10:47:44;;;;;;;5.55;4.63;;;11.20;93.10;;;;;;5075007;28;20039;-79
2022/04/04 10:50:23;;;;;;;5.82;4.78;;;11.30;93.50;;;;;;5074795;28;20111;-79
2022/04/04 10:52:50;;;;;;;4.93;4.25;;;11.30;93.00;;;;;;5054894;28;20025;-80
2022/04/04 10:55:34;;;;;;;5.28;4.15;;;11.20;92.80;;;;;;5055119;28;20017;-79
2022/04/04 10:58:09;;;;;;;7.32;4.38;;;11.20;92.40;;;;;;5055450;28;20028;-80
2022/04/04 11:00:52;;;;;;;5.50;4.82;;;11.20;92.60;;;;;;5037304;28;20032;-80
2022/04/04 11:03:41;;;;;;;8.43;4.25;;;11.20;92.40;;;;;;5055176;28;20021;-80
2022/04/04 11:09:04;;;;;;;5.97;4.30;;;11.20;92.80;;;;;;5054998;28;20072;-80
2022/04/04 11:11:49;;;;;;;4.82;4.05;;;11.30;92.90;;;;;;5055051;28;20021;-80
2022/04/04 11:14:46;;;;;;;6.80;5.10;;;11.30;92.90;;;;;;5055144;28;20124;-79
2022/04/04 11:17:13;;;;;;;7.55;4.28;;;11.20;92.30;;;;;;5070225;28;20033;-79
2022/04/04 11:19:49;;;;;;;7.15;4.10;;;11.20;92.80;;;;;;5037028;28;20124;-79
2022/04/04 11:22:26;;;;;;;8.18;4.40;;;11.20;92.90;;;;;;5070121;28;20051;-79
2022/04/04 11:24:58;;;;;;;6.22;4.72;;;11.20;92.10;;;;;;5054691;28;20047;-80
2022/04/04 11:27:28;;;;;;;4.75;4.28;;;11.20;92.60;;;;;;5036970;28;20029;-79
2022/04/04 11:29:54;;;;;;;5.03;4.57;;;11.30;93.00;;;;;;5052137;28;20079;-78
2022/04/04 11:32:33;;;;;;;5.72;5.18;;;11.30;93.20;;;;;;5034487;28;20017;-79
2022/04/04 11:35:01;;;;;;;6.38;4.85;;;11.40;93.10;;;;;;5052386;28;20021;-79
2022/04/04 11:37:29;;;;;;;5.40;4.75;;;11.40;93.60;;;;;;5052302;28;20083;-81
2022/04/04 11:40:03;;;;;;;4.90;4.40;;;11.40;93.20;;;;;;5051870;28;20074;-79
2022/04/04 11:42:39;;;;;;;5.43;4.82;;;11.40;93.00;;;;;;5056620;28;20016;-80
2022/04/04 11:45:05;;;;;;;5.22;4.60;;;11.50;92.80;;;;;;5054014;28;20533;-79
2022/04/04 11:47:32;;;;;;;5.18;4.70;;;11.50;92.20;;;;;;5072745;28;20111;-78
2022/04/04 11:50:01;;;;;;;8.98;5.00;;;11.60;92.20;;;;;;5071354;28;20040;-78
2022/04/04 11:52:27;;;;;;;5.97;4.82;;;11.60;92.50;;;;;;5052209;28;20029;-79
2022/04/04 11:54:53;;;;;;;6.32;4.43;;;11.60;92.50;;;;;;5052014;28;20086;-79
2022/04/04 11:57:21;;;;;;;5.50;4.97;;;11.70;92.30;;;;;;5051634;28;20021;-79
2022/04/04 11:59:49;;;;;;;6.47;5.10;;;11.60;91.90;;;;;;5067792;28;20117;-82
2022/04/04 12:02:16;;;;;;;8.85;5.13;;;11.50;91.60;;;;;;5051500;28;20024;-78
2022/04/04 12:04:43;;;;;;;9.00;4.65;;;11.60;91.70;;;;;;5050886;28;20025;-79
2022/04/04 12:07:11;;;;;;;9.48;4.85;;;11.70;92.70;;;;;;5067013;28;20021;-77
2022/04/04 12:09:37;;;;;;;8.50;4.93;;;11.70;92.20;;;;;;5051355;28;20040;-77
2022/04/04 12:12:11;;;;;;;6.45;4.78;;;11.80;92.50;;;;;;5051878;28;20025;-77
2022/04/04 12:14:39;;;;;;;5.65;5.10;;;11.80;92.40;;;;;;5033589;28;20060;-78
2022/04/04 12:17:07;;;;;;;4.95;4.38;;;11.90;91.70;;;;;;5050761;28;20159;-79
2022/04/04 12:19:46;;;;;;;7.15;5.10;;;11.90;91.80;;;;;;5051248;28;20444;-79
2022/04/04 12:25:00;;;;;;;5.63;4.78;;;12.00;91.90;;;;;;5051128;28;20036;-77
2022/04/04 12:27:26;;;;;;;8.43;4.82;;;12.00;91.40;;;;;;5051376;28;20017;-77
2022/04/04 12:29:59;;;;;;;7.28;5.10;;;12.10;91.90;;;;;;5051399;28;20025;-79
2022/04/04 12:32:26;;;;;;;5.93;5.32;;;12.10;91.80;;;;;;5050874;28;20079;-79
2022/04/04 12:35:00;;;;;;;5.68;5.13;;;12.10;91.00;;;;;;5033519;28;20425;-79
2022/04/04 12:37:36;;;;;;;7.45;5.75;;;12.00;90.90;;;;;;5067078;28;20029;-79
2022/04/04 12:40:22;;;;;;;5.82;5.18;;;12.00;91.60;;;;;;5033859;28;20194;-80
2022/04/04 12:42:50;;;;;;;5.90;5.40;;;12.00;92.10;;;;;;5054228;28;20111;-79
2022/04/04 12:45:18;;;;;;;5.28;4.75;;;12.00;92.80;;;;;;5050816;28;20028;-79
2022/04/04 12:47:56;;;;;;;7.53;5.90;;;12.00;91.80;;;;;;5050425;28;20029;-79
2022/04/04 12:50:24;;;;;;;6.88;5.45;;;12.00;92.20;;;;;;5036896;28;20035;-80
2022/04/04 12:53:04;;;;;;;5.53;4.95;;;11.90;91.30;;;;;;5051066;28;20025;-79
2022/04/04 12:55:31;;;;;;;6.40;4.65;;;12.00;92.20;;;;;;5050606;28;20025;-79
2022/04/04 12:58:15;;;;;;;7.88;5.70;;;12.20;93.90;;;;;;5066797;28;20114;-80
2022/04/04 13:00:40;;;;;;;8.93;5.47;;;12.30;93.80;;;;;;5071352;28;20373;-79
2022/04/04 13:03:27;;;;;;;6.57;5.15;;;12.40;93.00;;;;;;5070369;28;20091;-79
2022/04/04 13:05:57;;;;;;;7.15;4.65;;;12.50;92.40;;;;;;5071140;28;20067;-81
2022/04/04 13:08:25;;;;;;;7.40;5.35;;;12.60;92.30;;;;;;5070141;28;20488;-78
2022/04/04 13:11:02;;;;;;;7.65;5.25;;;12.60;91.00;;;;;;5053194;28;20027;-80